createdAt,value
2014-08-08T00:00:44.524Z,71.86
2014-08-08T00:01:49.216Z,71.66
2014-08-08T00:02:53.905Z,72.87
2014-08-08T00:03:58.595Z,73.16
2014-08-08T00:05:03.285Z,74.03
2014-08-08T00:06:07.958Z,73.61
2014-08-08T00:07:12.946Z,73.88
2014-08-08T00:08:17.915Z,74.13
2014-08-08T00:09:22.605Z,73.45
2014-08-08T00:10:27.295Z,73.19
2014-08-08T00:11:31.969Z,74.32
2014-08-08T00:12:36.659Z,74.97
2014-08-08T00:13:41.644Z,74.93
2014-08-08T00:14:46.319Z,74.12
2014-08-08T00:15:51.008Z,74.45
2014-08-08T00:16:55.978Z,73.7
2014-08-08T00:18:00.669Z,72.99
2014-08-08T00:19:05.655Z,73.25
2014-08-08T00:20:10.329Z,73.57
2014-08-08T00:21:15.315Z,73.5
2014-08-08T00:22:19.989Z,73.15
2014-08-08T00:23:24.678Z,73.84
2014-08-08T00:24:29.648Z,73.48
2014-08-08T00:25:34.636Z,73.51
2014-08-08T00:26:39.324Z,73.18
2014-08-08T00:27:44.311Z,73.11
2014-08-08T00:28:49.283Z,72.88
2014-08-08T00:29:53.973Z,73.2
2014-08-08T00:30:58.647Z,72.87
2014-08-08T00:32:03.633Z,72.91
2014-08-08T00:33:08.323Z,73.11
2014-08-08T00:34:13.013Z,73.7
2014-08-08T00:35:17.983Z,73.42
2014-08-08T00:36:22.672Z,73.32
2014-08-08T00:37:27.659Z,73.58
2014-08-08T00:38:32.348Z,73.21
2014-08-08T00:39:37.023Z,73.76
2014-08-08T00:40:41.712Z,73.53
2014-08-08T00:41:45.699Z,73.35
2014-08-08T00:42:50.388Z,73.28
2014-08-08T00:43:55.061Z,74.27
2014-08-08T00:44:59.064Z,74.56
2014-08-08T00:46:03.737Z,74.32
2014-08-08T00:47:08.427Z,74.03
2014-08-08T00:48:13.414Z,74.28
2014-08-08T00:49:17.713Z,74.16
2014-08-08T00:50:21.699Z,73.28
2014-08-08T00:51:26.686Z,73.07
2014-08-08T00:52:31.671Z,73.21
2014-08-08T00:53:36.361Z,73.11
2014-08-08T00:54:41.331Z,73.06
2014-08-08T00:55:46.318Z,73.19
2014-08-08T00:56:50.994Z,73.24
2014-08-08T00:57:55.980Z,73.76
2014-08-08T00:59:00.654Z,74.11
2014-08-08T01:00:05.640Z,73.61
2014-08-08T01:01:10.313Z,74.2
2014-08-08T01:02:15.003Z,74.21
2014-08-08T01:03:19.973Z,75.24
2014-08-08T01:04:24.663Z,75.32
2014-08-08T01:05:29.352Z,75.45
2014-08-08T01:06:34.026Z,75.11
2014-08-08T01:07:38.716Z,74.41
2014-08-08T01:08:43.406Z,74.08
2014-08-08T01:09:48.095Z,74.36
2014-08-08T01:10:53.081Z,74.04
2014-08-08T01:11:57.771Z,73.7
2014-08-08T01:13:02.741Z,73.12
2014-08-08T01:14:07.729Z,73.69
2014-08-08T01:15:12.417Z,74.38
2014-08-08T01:16:17.404Z,75.75
2014-08-08T01:17:22.375Z,75.95
2014-08-08T01:18:27.064Z,75.26
2014-08-08T01:19:31.739Z,74.72
2014-08-08T01:20:37.021Z,74.07
2014-08-08T01:21:41.712Z,73.65
2014-08-08T01:22:46.403Z,73.82
2014-08-08T01:23:51.373Z,74.62
2014-08-08T01:24:56.062Z,73.55
2014-08-08T01:26:01.034Z,73.05
2014-08-08T01:27:05.724Z,73.11
2014-08-08T01:28:10.710Z,73.32
2014-08-08T01:29:15.680Z,73.15
2014-08-08T01:30:20.666Z,72.62
2014-08-08T01:31:25.652Z,73
2014-08-08T01:32:30.623Z,73.95
2014-08-08T01:33:35.610Z,74.18
2014-08-08T01:34:40.283Z,73.92
2014-08-08T01:35:44.973Z,73.74
2014-08-08T01:36:49.662Z,72.88
2014-08-08T01:37:54.352Z,72.75
2014-08-08T01:38:59.026Z,72.35
2014-08-08T01:40:03.715Z,72.62
2014-08-08T01:41:08.389Z,72.73
2014-08-08T01:42:13.376Z,73.23
2014-08-08T01:43:18.363Z,73.82
2014-08-08T01:44:23.036Z,73.89
2014-08-08T01:45:27.726Z,73.94
2014-08-08T01:46:32.416Z,74.02
2014-08-08T01:47:37.105Z,73.83
2014-08-08T01:48:41.779Z,74.25
2014-08-08T01:49:46.469Z,74.34
2014-08-08T01:50:51.159Z,74.32
2014-08-08T01:51:56.146Z,74.29
2014-08-08T01:53:00.836Z,74.36
2014-08-08T01:54:05.822Z,73.29
2014-08-08T01:55:10.495Z,72.94
2014-08-08T01:56:15.483Z,72.99
2014-08-08T01:57:20.469Z,72.85
2014-08-08T01:58:25.143Z,72.89
2014-08-08T01:59:29.832Z,73.18
2014-08-08T02:00:34.522Z,73.49
2014-08-08T02:01:39.196Z,74.19
2014-08-08T02:02:44.182Z,74.17
2014-08-08T02:03:48.872Z,74.09
2014-08-08T02:04:53.842Z,74.04
2014-08-08T02:05:58.830Z,73.38
2014-08-08T02:07:03.800Z,72.9
2014-08-08T02:08:08.489Z,72.94
2014-08-08T02:09:13.179Z,72.94
2014-08-08T02:10:17.852Z,72.8
2014-08-08T02:11:22.542Z,72.57
2014-08-08T02:12:27.217Z,72.33
2014-08-08T02:13:32.203Z,72.37
2014-08-08T02:14:36.893Z,72.49
2014-08-08T02:15:41.566Z,71.74
2014-08-08T02:16:46.256Z,71.86
2014-08-08T02:17:50.929Z,71.99
2014-08-08T02:18:55.619Z,71.78
2014-08-08T02:20:00.292Z,71.74
2014-08-08T02:21:05.280Z,71.52
2014-08-08T02:22:09.969Z,72.02
2014-08-08T02:23:14.268Z,71.81
2014-08-08T02:24:18.958Z,71.99
2014-08-08T02:25:23.647Z,71.8
2014-08-08T02:26:28.320Z,72.38
2014-08-08T02:27:33.025Z,72.78
2014-08-08T02:28:37.700Z,73.06
2014-08-08T02:29:42.389Z,73.7
2014-08-08T02:30:47.376Z,72.61
2014-08-08T02:31:52.051Z,72.34
2014-08-08T02:32:57.037Z,71.71
2014-08-08T02:34:01.711Z,71.85
2014-08-08T02:35:06.697Z,71.77
2014-08-08T02:36:11.683Z,72
2014-08-08T02:37:16.654Z,72.23
2014-08-08T02:38:21.344Z,72.38
2014-08-08T02:39:26.330Z,73.16
2014-08-08T02:40:31.004Z,72.81
2014-08-08T02:41:35.694Z,72.97
2014-08-08T02:42:40.382Z,73.24
2014-08-08T02:43:45.056Z,72.99
2014-08-08T02:44:50.044Z,72.99
2014-08-08T02:45:55.031Z,72.81
2014-08-08T02:47:00.017Z,72.51
2014-08-08T02:48:04.988Z,72.39
2014-08-08T02:49:09.974Z,73.18
2014-08-08T02:50:14.945Z,73.78
2014-08-08T02:51:19.635Z,72.93
2014-08-08T02:52:24.324Z,72.93
2014-08-08T02:53:29.294Z,72.82
2014-08-08T02:54:34.281Z,73.07
2014-08-08T02:55:38.954Z,72.82
2014-08-08T02:56:43.941Z,72.96
2014-08-08T02:57:48.631Z,73.1
2014-08-08T02:58:53.602Z,73.05
2014-08-08T02:59:58.588Z,72.88
2014-08-08T03:01:03.278Z,73.04
2014-08-08T03:02:08.264Z,72.87
2014-08-08T03:03:12.938Z,72.88
2014-08-08T03:04:17.924Z,72.55
2014-08-08T03:05:22.614Z,72.64
2014-08-08T03:06:27.584Z,72.63
2014-08-08T03:07:32.275Z,73.69
2014-08-08T03:08:36.964Z,73.98
2014-08-08T03:09:41.637Z,72.84
2014-08-08T03:10:46.327Z,72.44
2014-08-08T03:11:51.003Z,71.87
2014-08-08T03:12:55.989Z,71.93
2014-08-08T03:14:00.662Z,72.81
2014-08-08T03:15:05.351Z,73.18
2014-08-08T03:16:10.323Z,73.17
2014-08-08T03:17:15.013Z,73.35
2014-08-08T03:18:19.983Z,73.67
2014-08-08T03:19:24.970Z,73.62
2014-08-08T03:20:29.955Z,74.09
2014-08-08T03:21:34.630Z,73.34
2014-08-08T03:22:39.319Z,73.06
2014-08-08T03:23:43.993Z,72.72
2014-08-08T03:24:48.682Z,72.49
2014-08-08T03:25:53.653Z,73.56
2014-08-08T03:26:58.639Z,74.06
2014-08-08T03:28:03.330Z,73.45
2014-08-08T03:29:08.003Z,72.3
2014-08-08T03:30:12.990Z,72.08
2014-08-08T03:31:17.960Z,72.74
2014-08-08T03:32:22.650Z,73.11
2014-08-08T03:33:27.340Z,72.9
2014-08-08T03:34:32.013Z,72.38
2014-08-08T03:35:37.000Z,72.3
2014-08-08T03:36:40.986Z,72.41
2014-08-08T03:37:46.269Z,72.93
2014-08-08T03:38:51.257Z,73.11
2014-08-08T03:39:56.243Z,73.6
2014-08-08T03:41:00.918Z,73.46
2014-08-08T03:42:05.608Z,73.22
2014-08-08T03:43:10.296Z,72.97
2014-08-08T03:44:14.970Z,72.55
2014-08-08T03:45:19.659Z,72.72
2014-08-08T03:46:24.349Z,72.82
2014-08-08T03:47:29.321Z,72.27
2014-08-08T03:48:34.307Z,72.33
2014-08-08T03:49:38.980Z,72.18
2014-08-08T03:50:43.669Z,71.81
2014-08-08T03:51:48.343Z,71.85
2014-08-08T03:52:53.332Z,72.2
2014-08-08T03:53:58.006Z,72.12
2014-08-08T03:55:02.695Z,72.16
2014-08-08T03:56:07.665Z,73.02
2014-08-08T03:57:12.651Z,73.43
2014-08-08T03:58:17.325Z,73.12
2014-08-08T03:59:22.015Z,72.78
2014-08-08T04:00:26.985Z,72.2
2014-08-08T04:01:31.675Z,72.18
2014-08-08T04:02:36.646Z,71.92
2014-08-08T04:03:41.335Z,73.18
2014-08-08T04:04:46.009Z,73.12
2014-08-08T04:05:50.997Z,73.43
2014-08-08T04:06:55.671Z,74.24
2014-08-08T04:08:00.361Z,74.58
2014-08-08T04:09:05.035Z,74.45
2014-08-08T04:10:10.021Z,74.88
2014-08-08T04:11:14.694Z,75.61
2014-08-08T04:12:19.977Z,75.47
2014-08-08T04:13:24.667Z,74.61
2014-08-08T04:14:29.340Z,74.55
2014-08-08T04:15:34.030Z,74.62
2014-08-08T04:16:38.704Z,74.6
2014-08-08T04:17:43.690Z,74.85
2014-08-08T04:18:48.380Z,74.77
2014-08-08T04:19:53.071Z,74.87
2014-08-08T04:20:57.761Z,74.68
2014-08-08T04:22:02.731Z,74.71
2014-08-08T04:23:07.421Z,73.81
2014-08-08T04:24:12.391Z,73.53
2014-08-08T04:25:17.378Z,73.59
2014-08-08T04:26:22.051Z,73.94
2014-08-08T04:27:27.038Z,73.31
2014-08-08T04:28:31.727Z,72.32
2014-08-08T04:29:36.416Z,72.08
2014-08-08T04:30:41.090Z,72.52
2014-08-08T04:31:45.780Z,72.26
2014-08-08T04:32:50.751Z,71.88
2014-08-08T04:33:55.441Z,72.93
2014-08-08T04:35:00.412Z,74.01
2014-08-08T04:36:05.398Z,73.75
2014-08-08T04:37:10.071Z,73.88
2014-08-08T04:38:14.761Z,73.43
2014-08-08T04:39:19.435Z,73
2014-08-08T04:40:24.406Z,73.67
2014-08-08T04:41:29.392Z,74.05
2014-08-08T04:42:34.379Z,74.39
2014-08-08T04:43:39.350Z,74.37
2014-08-08T04:44:44.039Z,74.41
2014-08-08T04:45:48.713Z,74.62
2014-08-08T04:46:53.404Z,74.55
2014-08-08T04:47:58.077Z,75.02
2014-08-08T04:49:03.064Z,73.58
2014-08-08T04:50:08.050Z,72.89
2014-08-08T04:51:13.021Z,72.8
2014-08-08T04:52:17.710Z,73.5
2014-08-08T04:53:22.400Z,74.05
2014-08-08T04:54:27.074Z,74.24
2014-08-08T04:55:31.763Z,73.7
2014-08-08T04:56:36.734Z,72.94
2014-08-08T04:57:41.720Z,72.58
2014-08-08T04:58:46.410Z,73.48
2014-08-08T04:59:51.131Z,73.52
2014-08-08T05:00:55.804Z,73.19
2014-08-08T05:02:00.792Z,73.27
2014-08-08T05:03:05.764Z,73.09
2014-08-08T05:04:10.750Z,72.69
2014-08-08T05:05:15.424Z,72.63
2014-08-08T05:06:20.113Z,71.88
2014-08-08T05:07:25.084Z,71.55
2014-08-08T05:08:29.774Z,71.36
2014-08-08T05:09:34.463Z,71.02
2014-08-08T05:10:39.434Z,71.21
2014-08-08T05:11:44.420Z,71.82
2014-08-08T05:12:49.094Z,72.28
2014-08-08T05:13:53.784Z,72.61
2014-08-08T05:14:58.457Z,72.27
2014-08-08T05:16:03.147Z,72.24
2014-08-08T05:17:07.821Z,71.64
2014-08-08T05:18:12.807Z,71.64
2014-08-08T05:19:17.497Z,72.87
2014-08-08T05:20:22.170Z,72.93
2014-08-08T05:21:27.156Z,71.87
2014-08-08T05:22:31.830Z,71.03
2014-08-08T05:23:36.817Z,70.6
2014-08-08T05:24:41.804Z,70.22
2014-08-08T05:25:46.477Z,70.11
2014-08-08T05:26:51.167Z,69.13
2014-08-08T05:27:55.858Z,69.28
2014-08-08T05:29:00.547Z,69.27
2014-08-08T05:30:05.518Z,69.37
2014-08-08T05:31:10.207Z,69.18
2014-08-08T05:32:14.881Z,68.99
2014-08-08T05:33:19.571Z,68.01
2014-08-08T05:34:24.556Z,67.37
2014-08-08T05:35:29.231Z,67.29
2014-08-08T05:36:34.217Z,66.74
2014-08-08T05:37:39.204Z,66.9
2014-08-08T05:38:43.877Z,65.98
2014-08-08T05:39:48.566Z,66.04
2014-08-08T05:40:53.539Z,66.57
2014-08-08T05:41:58.525Z,66.12
2014-08-08T05:43:03.511Z,66.32
2014-08-08T05:44:07.498Z,65.39
2014-08-08T05:45:12.186Z,63.91
2014-08-08T05:46:17.158Z,61.08
2014-08-08T05:47:21.848Z,56.27
2014-08-08T05:48:26.537Z,52.93
2014-08-08T05:49:31.507Z,50.63
2014-08-08T05:50:36.196Z,50.36
2014-08-08T05:51:41.480Z,50.75
2014-08-08T05:52:46.466Z,48.61
2014-08-08T05:53:51.156Z,47.42
2014-08-08T05:54:55.847Z,45.7
2014-08-08T05:56:00.536Z,44.53
2014-08-08T05:57:05.226Z,43.69
2014-08-08T05:58:10.212Z,42
2014-08-08T05:59:14.886Z,41.2
2014-08-08T06:00:19.873Z,42
2014-08-08T06:01:24.859Z,42.34
2014-08-08T06:02:29.549Z,42.71
2014-08-08T06:03:33.551Z,41.42
2014-08-08T06:04:38.240Z,39.4
2014-08-08T06:05:42.930Z,38.99
2014-08-08T06:06:48.213Z,38.94
2014-08-08T06:07:52.902Z,39.12
2014-08-08T06:08:57.592Z,38.95
2014-08-08T06:10:02.595Z,40.16
2014-08-08T06:11:07.581Z,40.73
2014-08-08T06:12:12.271Z,39.4
2014-08-08T06:13:16.960Z,38.97
2014-08-08T06:14:21.650Z,36.93
2014-08-08T06:15:26.339Z,35.34
2014-08-08T06:16:31.325Z,35.17
2014-08-08T06:17:36.015Z,37.08
2014-08-08T06:18:41.033Z,37.75
2014-08-08T06:19:45.722Z,38.3
2014-08-08T06:20:50.411Z,35.27
2014-08-08T06:21:55.399Z,35.06
2014-08-08T06:23:00.698Z,35.35
2014-08-08T06:24:05.684Z,35.85
2014-08-08T06:25:10.388Z,34.52
2014-08-08T06:26:15.078Z,33.38
2014-08-08T06:27:19.768Z,32.32
2014-08-08T06:28:24.473Z,32.6
2014-08-08T06:29:29.163Z,32.9
2014-08-08T06:30:34.148Z,33.92
2014-08-08T06:31:39.151Z,32.43
2014-08-08T06:32:43.840Z,31.29
2014-08-08T06:33:48.826Z,31.05
2014-08-08T06:34:53.531Z,32.12
2014-08-08T06:35:58.223Z,33.36
2014-08-08T06:37:02.928Z,34.79
2014-08-08T06:38:08.211Z,35.74
2014-08-08T06:39:12.916Z,36.41
2014-08-08T06:40:17.621Z,34.13
2014-08-08T06:41:22.607Z,33.22
2014-08-08T06:42:27.594Z,34.37
2014-08-08T06:43:32.595Z,33.94
2014-08-08T06:44:37.582Z,33.54
2014-08-08T06:45:42.271Z,31.59
2014-08-08T06:46:47.274Z,30.82
2014-08-08T06:47:52.260Z,30.17
2014-08-08T06:48:57.247Z,30.1
2014-08-08T06:50:01.952Z,32.02
2014-08-08T06:51:06.640Z,32.25
2014-08-08T06:52:11.330Z,31.83
2014-08-08T06:53:16.020Z,34.03
2014-08-08T06:54:21.023Z,38.51
2014-08-08T06:55:26.307Z,43.52
2014-08-08T06:56:31.012Z,46.13
2014-08-08T06:57:35.700Z,47.54
2014-08-08T06:58:40.688Z,49.67
2014-08-08T06:59:44.690Z,50.36
2014-08-08T07:00:49.675Z,53.5
2014-08-08T07:01:54.366Z,53.19
2014-08-08T07:02:59.054Z,51.91
2014-08-08T07:04:03.744Z,53.74
2014-08-08T07:05:08.730Z,54.73
2014-08-08T07:06:13.420Z,53.77
2014-08-08T07:07:18.111Z,55.31
2014-08-08T07:08:22.113Z,58.25
2014-08-08T07:09:26.802Z,59.15
2014-08-08T07:10:31.492Z,59.04
2014-08-08T07:11:36.181Z,58.22
2014-08-08T07:12:40.871Z,58.68
2014-08-08T07:13:45.857Z,59.8
2014-08-08T07:14:50.843Z,60.63
2014-08-08T07:15:55.830Z,59.91
2014-08-08T07:17:00.504Z,58.83
2014-08-08T07:18:05.490Z,57.85
2014-08-08T07:19:10.180Z,57.66
2014-08-08T07:20:14.869Z,58.3
2014-08-08T07:21:19.543Z,58.2
2014-08-08T07:22:24.529Z,57.73
2014-08-08T07:23:29.814Z,57.22
2014-08-08T07:24:34.801Z,58.18
2014-08-08T07:25:39.490Z,58.33
2014-08-08T07:26:44.179Z,57.74
2014-08-08T07:27:48.853Z,57.26
2014-08-08T07:28:54.136Z,57.7
2014-08-08T07:29:58.826Z,57.71
2014-08-08T07:31:03.515Z,57.96
2014-08-08T07:32:08.503Z,58.5
2014-08-08T07:33:13.488Z,58.96
2014-08-08T07:34:18.475Z,59.3
2014-08-08T07:35:23.149Z,60.22
2014-08-08T07:36:28.136Z,58.78
2014-08-08T07:37:33.121Z,59.78
2014-08-08T07:38:38.107Z,59.1
2014-08-08T07:39:43.094Z,58.34
2014-08-08T07:40:47.783Z,58.68
2014-08-08T07:41:52.473Z,58.33
2014-08-08T07:42:57.162Z,59.88
2014-08-08T07:44:01.852Z,60.8
2014-08-08T07:45:06.527Z,61.16
2014-08-08T07:46:11.809Z,61.18
2014-08-08T07:47:16.499Z,59.91
2014-08-08T07:48:21.782Z,58.98
2014-08-08T07:49:26.472Z,60.37
2014-08-08T07:50:31.146Z,62.49
2014-08-08T07:51:35.836Z,61.22
2014-08-08T07:52:40.524Z,59.99
2014-08-08T07:53:45.215Z,59.37
2014-08-08T07:54:50.201Z,59.14
2014-08-08T07:55:54.890Z,59.38
2014-08-08T07:56:59.580Z,59.15
2014-08-08T07:58:03.582Z,59.73
2014-08-08T07:59:08.271Z,59.16
2014-08-08T08:00:12.961Z,58.16
2014-08-08T08:01:17.961Z,57.37
2014-08-08T08:02:22.690Z,57.59
2014-08-08T08:03:27.718Z,58.59
2014-08-08T08:04:33.040Z,59.49
2014-08-08T08:05:37.773Z,60.68
2014-08-08T08:06:42.469Z,60.71
2014-08-08T08:07:47.174Z,60.61
2014-08-08T08:08:52.175Z,59.51
2014-08-08T08:09:56.894Z,59.04
2014-08-08T08:11:01.591Z,57.77
2014-08-08T08:12:06.285Z,58.18
2014-08-08T08:13:10.980Z,57.55
2014-08-08T08:14:15.673Z,58.28
2014-08-08T08:15:20.352Z,59.61
2014-08-08T08:16:25.044Z,58.78
2014-08-08T08:17:29.735Z,59.23
2014-08-08T08:18:34.722Z,58.31
2014-08-08T08:19:39.414Z,58.47
2014-08-08T08:20:44.104Z,57.96
2014-08-08T08:21:48.795Z,57.73
2014-08-08T08:22:53.782Z,58.47
2014-08-08T08:23:58.475Z,57.38
2014-08-08T08:25:03.462Z,57.98
2014-08-08T08:26:08.450Z,58.02
2014-08-08T08:27:13.138Z,56.37
2014-08-08T08:28:17.845Z,56.6
2014-08-08T08:29:22.535Z,57.59
2014-08-08T08:30:27.224Z,56.47
2014-08-08T08:31:31.915Z,57.07
2014-08-08T08:32:36.603Z,57.08
2014-08-08T08:33:41.591Z,56.18
2014-08-08T08:34:46.576Z,57.04
2014-08-08T08:35:51.266Z,58.15
2014-08-08T08:36:55.955Z,57.94
2014-08-08T08:38:00.941Z,57.64
2014-08-08T08:39:04.943Z,57.08
2014-08-08T08:40:09.930Z,58.32
2014-08-08T08:41:14.620Z,57.39
2014-08-08T08:42:19.309Z,56.96
2014-08-08T08:43:23.998Z,57.75
2014-08-08T08:44:28.688Z,56.23
2014-08-08T08:45:33.377Z,57.09
2014-08-08T08:46:38.067Z,55.65
2014-08-08T08:47:42.756Z,55.61
2014-08-08T08:48:47.430Z,56.47
2014-08-08T08:49:52.120Z,56.45
2014-08-08T08:50:56.809Z,56.71
2014-08-08T08:52:01.499Z,57.27
2014-08-08T08:53:06.190Z,56.18
2014-08-08T08:54:10.880Z,55
2014-08-08T08:55:15.552Z,56.23
2014-08-08T08:56:20.243Z,55.34
2014-08-08T08:57:25.229Z,55.91
2014-08-08T08:58:29.919Z,55.15
2014-08-08T08:59:34.608Z,55.7
2014-08-08T09:00:39.298Z,56.66
2014-08-08T09:01:43.987Z,56.08
2014-08-08T09:02:48.975Z,55.12
2014-08-08T09:03:53.960Z,56.21
2014-08-08T09:04:58.947Z,56.22
2014-08-08T09:06:03.652Z,54.71
2014-08-08T09:07:08.341Z,54.79
2014-08-08T09:08:13.031Z,55.99
2014-08-08T09:09:17.720Z,55.64
2014-08-08T09:10:22.706Z,55.72
2014-08-08T09:11:27.396Z,55.99
2014-08-08T09:12:32.382Z,56.06
2014-08-08T09:13:37.353Z,57.32
2014-08-08T09:14:42.355Z,56.37
2014-08-08T09:15:47.326Z,56.37
2014-08-08T09:16:52.327Z,55.42
2014-08-08T09:17:57.016Z,55.45
2014-08-08T09:19:01.989Z,55.6
2014-08-08T09:20:06.694Z,56.73
2014-08-08T09:21:11.368Z,55.47
2014-08-08T09:22:16.058Z,55.61
2014-08-08T09:23:20.748Z,55.85
2014-08-08T09:24:25.734Z,55.96
2014-08-08T09:25:30.721Z,55.19
2014-08-08T09:26:35.707Z,55.32
2014-08-08T09:27:40.694Z,54.66
2014-08-08T09:28:45.664Z,54.82
2014-08-08T09:29:50.369Z,54.34
2014-08-08T09:30:55.043Z,55.39
2014-08-08T09:31:59.733Z,55.35
2014-08-08T09:33:04.422Z,55.46
2014-08-08T09:34:09.423Z,55.83
2014-08-08T09:35:14.411Z,55.55
2014-08-08T09:36:19.100Z,55.52
2014-08-08T09:37:23.790Z,54.22
2014-08-08T09:38:28.479Z,54.65
2014-08-08T09:39:33.169Z,54.6
2014-08-08T09:40:37.858Z,54.97
2014-08-08T09:41:42.548Z,55.94
2014-08-08T09:42:47.237Z,54.65
2014-08-08T09:43:51.927Z,53.48
2014-08-08T09:44:57.210Z,54.31
2014-08-08T09:46:01.901Z,55.58
2014-08-08T09:47:06.888Z,55.61
2014-08-08T09:48:11.592Z,54.06
2014-08-08T09:49:16.281Z,55.09
2014-08-08T09:50:20.971Z,54.17
2014-08-08T09:51:25.660Z,54.11
2014-08-08T09:52:30.647Z,54.12
2014-08-08T09:53:35.336Z,54.4
2014-08-08T09:54:40.027Z,55.13
2014-08-08T09:55:45.013Z,54.46
2014-08-08T09:56:49.702Z,53.18
2014-08-08T09:57:54.377Z,52.2
2014-08-08T09:58:59.362Z,53.01
2014-08-08T10:00:04.349Z,52.79
2014-08-08T10:01:09.335Z,51.72
2014-08-08T10:02:14.338Z,53.96
2014-08-08T10:03:19.308Z,52.84
2014-08-08T10:04:23.998Z,52.33
2014-08-08T10:05:28.687Z,54.12
2014-08-08T10:06:33.377Z,53.09
2014-08-08T10:07:38.066Z,54.34
2014-08-08T10:08:43.052Z,53.25
2014-08-08T10:09:47.741Z,53.06
2014-08-08T10:10:52.729Z,53.3
2014-08-08T10:11:57.714Z,53.67
2014-08-08T10:13:02.405Z,53
2014-08-08T10:14:07.375Z,52.36
2014-08-08T10:15:12.065Z,51.97
2014-08-08T10:16:16.769Z,52.07
2014-08-08T10:17:21.459Z,52.29
2014-08-08T10:18:25.460Z,51.27
2014-08-08T10:19:30.151Z,51.59
2014-08-08T10:20:34.840Z,52.29
2014-08-08T10:21:39.530Z,50.91
2014-08-08T10:22:44.518Z,51.54
2014-08-08T10:23:49.208Z,52.02
2014-08-08T10:24:54.194Z,51.45
2014-08-08T10:25:59.181Z,51.28
2014-08-08T10:27:04.167Z,51.81
2014-08-08T10:28:09.153Z,50.67
2014-08-08T10:29:14.140Z,51.81
2014-08-08T10:30:18.830Z,51.78
2014-08-08T10:31:23.816Z,52.12
2014-08-08T10:32:29.099Z,51.09
2014-08-08T10:33:33.789Z,51.83
2014-08-08T10:34:38.775Z,53.55
2014-08-08T10:35:43.464Z,51.41
2014-08-08T10:36:48.154Z,51.43
2014-08-08T10:37:52.843Z,51.99
2014-08-08T10:38:57.830Z,50.75
2014-08-08T10:40:02.816Z,50.18
2014-08-08T10:41:07.802Z,50.91
2014-08-08T10:42:12.789Z,51.2
2014-08-08T10:43:17.478Z,50.36
2014-08-08T10:44:22.761Z,50.93
2014-08-08T10:45:27.451Z,50.16
2014-08-08T10:46:32.140Z,51.19
2014-08-08T10:47:36.830Z,50.66
2014-08-08T10:48:41.519Z,50.6
2014-08-08T10:49:46.506Z,50.44
2014-08-08T10:50:51.196Z,49.22
2014-08-08T10:51:56.182Z,50.16
2014-08-08T10:53:00.871Z,51.77
2014-08-08T10:54:05.562Z,50.38
2014-08-08T10:55:10.547Z,49.54
2014-08-08T10:56:15.239Z,49.06
2014-08-08T10:57:19.929Z,49.79
2014-08-08T10:58:24.618Z,50.23
2014-08-08T10:59:29.307Z,50.28
2014-08-08T11:00:33.325Z,49.68
2014-08-08T11:01:38.608Z,50.85
2014-08-08T11:02:43.297Z,50.96
2014-08-08T11:03:48.285Z,50.48
2014-08-08T11:04:53.270Z,49.23
2014-08-08T11:05:57.960Z,48.84
2014-08-08T11:07:02.649Z,49.13
2014-08-08T11:08:07.621Z,49.81
2014-08-08T11:09:12.623Z,49.09
2014-08-08T11:10:17.609Z,48.84
2014-08-08T11:11:22.299Z,49.24
2014-08-08T11:12:26.972Z,48.8
2014-08-08T11:13:31.975Z,49.84
2014-08-08T11:14:36.664Z,48.44
2014-08-08T11:15:41.650Z,45.34
2014-08-08T11:16:46.653Z,45.5
2014-08-08T11:17:51.638Z,47.37
2014-08-08T11:18:56.328Z,47.2
2014-08-08T11:20:01.018Z,47.57
2014-08-08T11:21:05.707Z,47.4
2014-08-08T11:22:10.396Z,48.14
2014-08-08T11:23:15.398Z,49.51
2014-08-08T11:24:20.371Z,48.17
2014-08-08T11:25:25.076Z,47.3
2014-08-08T11:26:29.764Z,47.5
2014-08-08T11:27:34.751Z,48.09
2014-08-08T11:28:39.738Z,47.62
2014-08-08T11:29:44.724Z,48.34
2014-08-08T11:30:49.711Z,49.19
2014-08-08T11:31:54.400Z,49.26
2014-08-08T11:32:59.387Z,48.37
2014-08-08T11:34:04.373Z,48.93
2014-08-08T11:35:09.063Z,49.01
2014-08-08T11:36:13.752Z,48.19
2014-08-08T11:37:18.442Z,48.08
2014-08-08T11:38:23.428Z,48.24
2014-08-08T11:39:28.133Z,49.07
2014-08-08T11:40:32.822Z,48.61
2014-08-08T11:41:37.809Z,49.2
2014-08-08T11:42:42.498Z,49.3
2014-08-08T11:43:47.485Z,46.62
2014-08-08T11:44:52.159Z,48.07
2014-08-08T11:45:56.848Z,46.64
2014-08-08T11:47:01.553Z,48.1
2014-08-08T11:48:06.243Z,47.21
2014-08-08T11:49:10.917Z,47.51
2014-08-08T11:50:15.606Z,48.58
2014-08-08T11:51:20.297Z,48.41
2014-08-08T11:52:24.987Z,48.92
2014-08-08T11:53:29.692Z,50.27
2014-08-08T11:54:34.679Z,48.71
2014-08-08T11:55:39.665Z,49.63
2014-08-08T11:56:44.355Z,48.85
2014-08-08T11:57:49.044Z,48.68
2014-08-08T11:58:54.031Z,49.15
2014-08-08T11:59:59.017Z,48.87
2014-08-08T12:01:03.706Z,47.11
2014-08-08T12:02:08.396Z,47.47
2014-08-08T12:03:13.085Z,48.27
2014-08-08T12:04:17.776Z,47.03
2014-08-08T12:05:22.464Z,47.4
2014-08-08T12:06:27.154Z,47.71
2014-08-08T12:07:31.843Z,49.06
2014-08-08T12:08:36.533Z,48.82
2014-08-08T12:09:41.223Z,48.06
2014-08-08T12:10:45.913Z,48.94
2014-08-08T12:11:50.601Z,47.19
2014-08-08T12:12:55.588Z,48.73
2014-08-08T12:14:00.590Z,48.58
2014-08-08T12:15:05.279Z,48.45
2014-08-08T12:16:09.969Z,46.77
2014-08-08T12:17:14.658Z,47.64
2014-08-08T12:18:19.350Z,47.47
2014-08-08T12:19:24.039Z,48.38
2014-08-08T12:20:28.729Z,48.57
2014-08-08T12:21:33.715Z,49.12
2014-08-08T12:22:38.405Z,48.93
2014-08-08T12:23:43.390Z,49.31
2014-08-08T12:24:47.689Z,49.64
2014-08-08T12:25:52.378Z,47.37
2014-08-08T12:26:57.068Z,47.12
2014-08-08T12:28:01.757Z,49.01
2014-08-08T12:29:06.447Z,50.04
2014-08-08T12:30:11.135Z,48.42
2014-08-08T12:31:15.826Z,49.13
2014-08-08T12:32:20.799Z,49.33
2014-08-08T12:33:24.801Z,50.4
2014-08-08T12:34:29.786Z,50.86
2014-08-08T12:35:34.492Z,49.97
2014-08-08T12:36:39.182Z,49.39
2014-08-08T12:37:43.870Z,49.92
2014-08-08T12:38:48.561Z,48.63
2014-08-08T12:39:53.249Z,47.35
2014-08-08T12:40:57.939Z,47.58
2014-08-08T12:42:02.925Z,47.98
2014-08-08T12:43:06.911Z,46.87
2014-08-08T12:44:11.602Z,46.69
2014-08-08T12:45:16.588Z,46.61
2014-08-08T12:46:21.575Z,47.84
2014-08-08T12:47:26.264Z,47.59
2014-08-08T12:48:30.954Z,46.93
2014-08-08T12:49:35.643Z,47.48
2014-08-08T12:50:40.333Z,47.74
2014-08-08T12:51:45.319Z,47.69
2014-08-08T12:52:50.305Z,48.17
2014-08-08T12:53:55.307Z,47.39
2014-08-08T12:55:00.294Z,47.96
2014-08-08T12:56:05.576Z,48.2
2014-08-08T12:57:10.266Z,48.19
2014-08-08T12:58:15.253Z,47.71
2014-08-08T12:59:19.944Z,48.06
2014-08-08T13:00:24.946Z,48.27
2014-08-08T13:01:29.635Z,46.47
2014-08-08T13:02:34.919Z,47.75
2014-08-08T13:03:39.608Z,47.38
2014-08-08T13:04:44.298Z,47.43
2014-08-08T13:05:49.283Z,47.91
2014-08-08T13:06:54.271Z,46.98
2014-08-08T13:07:58.959Z,46.82
2014-08-08T13:09:03.649Z,46.03
2014-08-08T13:10:08.338Z,45.57
2014-08-08T13:11:13.325Z,46.65
2014-08-08T13:12:18.311Z,46.71
2014-08-08T13:13:23.001Z,46.71
2014-08-08T13:14:27.691Z,46.96
2014-08-08T13:15:32.381Z,46.33
2014-08-08T13:16:37.070Z,47.32
2014-08-08T13:17:42.056Z,45.53
2014-08-08T13:18:46.746Z,45.08
2014-08-08T13:19:51.732Z,46.61
2014-08-08T13:20:56.422Z,47.16
2014-08-08T13:22:01.111Z,46.77
2014-08-08T13:23:05.801Z,46.13
2014-08-08T13:24:10.490Z,44.94
2014-08-08T13:25:15.164Z,46.18
2014-08-08T13:26:19.854Z,46.6
2014-08-08T13:27:24.544Z,47.84
2014-08-08T13:28:29.233Z,47.29
2014-08-08T13:29:34.219Z,46.75
2014-08-08T13:30:38.909Z,44.25
2014-08-08T13:31:43.895Z,44.66
2014-08-08T13:32:48.584Z,45.5
2014-08-08T13:33:53.868Z,45.52
2014-08-08T13:34:58.854Z,44.73
2014-08-08T13:36:04.138Z,46.9
2014-08-08T13:37:08.827Z,46.35
2014-08-08T13:38:13.517Z,45.61
2014-08-08T13:39:18.505Z,47.3
2014-08-08T13:40:23.195Z,45.4
2014-08-08T13:41:27.884Z,43.92
2014-08-08T13:42:32.870Z,44.28
2014-08-08T13:43:37.856Z,44.49
2014-08-08T13:44:42.843Z,44.04
2014-08-08T13:45:47.532Z,43.97
2014-08-08T13:46:52.222Z,43.93
2014-08-08T13:47:57.209Z,44.3
2014-08-08T13:49:01.914Z,43.95
2014-08-08T13:50:06.916Z,44.26
2014-08-08T13:51:11.606Z,44.78
2014-08-08T13:52:16.592Z,43.39
2014-08-08T13:53:21.579Z,43.44
2014-08-08T13:54:26.565Z,44.42
2014-08-08T13:55:31.254Z,45.57
2014-08-08T13:56:35.944Z,45.27
2014-08-08T13:57:40.930Z,44.76